Time;durP1;ratioP1;P1;durP2;ratioP2;P2;SDS_P1;SDS_P2;PMS_P1;PMS_P2;Temp;Humidity;BMP_temperature;BMP_pressure;BME280_temperature;BME280_humidity;BME280_pressure;Samples;Min_cycle;Max_cycle;Signal;HPM_P1;HPM_P2
2021/11/27 00:02:18;;;;;;;18.35;8.20;;;;;;;0.15;91.15;97799.66;5010875;28;19928;-61
2021/11/27 00:05:04;;;;;;;19.48;7.25;;;;;;;0.21;91.02;97791.19;5010543;28;20173;-62
2021/11/27 00:07:50;;;;;;;13.55;6.80;;;;;;;0.29;90.82;97790.50;5008891;28;20527;-62
2021/11/27 00:10:37;;;;;;;21.52;8.55;;;;;;;0.34;90.31;97785.63;5004486;28;20053;-62
2021/11/27 00:13:22;;;;;;;;;;;;;;;0.41;90.27;97781.47;5009382;28;20135;-63
2021/11/27 00:16:09;;;;;;;18.83;7.60;;;;;;;0.45;90.10;97788.13;5009587;28;20322;-62
2021/11/27 00:18:54;;;;;;;13.65;7.78;;;;;;;0.52;89.94;97785.75;5010435;28;20522;-62
2021/11/27 00:21:40;;;;;;;16.45;7.53;;;;;;;0.56;89.79;97787.97;5011016;28;20052;-64
2021/11/27 00:24:26;;;;;;;17.02;7.20;;;;;;;0.56;88.80;97787.13;5007348;28;20184;-63
2021/11/27 00:27:11;;;;;;;20.45;8.32;;;;;;;0.53;89.33;97782.13;5009499;28;20053;-62
2021/11/27 00:29:57;;;;;;;17.23;8.10;;;;;;;0.50;88.71;97785.06;5010042;28;20064;-65
2021/11/27 00:32:44;;;;;;;15.23;7.60;;;;;;;0.47;89.29;97785.31;5008576;28;20781;-62
2021/11/27 00:35:29;;;;;;;19.73;8.30;;;;;;;0.47;88.69;97783.53;5009106;28;20072;-61
2021/11/27 00:38:14;;;;;;;18.42;8.32;;;;;;;0.47;89.27;97790.59;5008647;28;20121;-63
2021/11/27 00:41:00;;;;;;;17.83;7.77;;;;;;;0.48;89.21;97773.81;5010340;28;20518;-61
2021/11/27 00:43:45;;;;;;;18.27;8.90;;;;;;;0.50;88.85;97771.88;5010131;28;20060;-61
2021/11/27 00:46:31;;;;;;;16.85;7.82;;;;;;;0.48;88.45;97765.91;5009491;28;20064;-62
2021/11/27 00:49:18;;;;;;;21.98;9.43;;;;;;;0.49;88.64;97762.28;4997635;28;20057;-63
2021/11/27 00:52:03;;;;;;;18.38;8.07;;;;;;;0.54;88.52;97770.59;5001840;28;20514;-65
2021/11/27 00:54:49;;;;;;;18.40;7.78;;;;;;;0.56;88.57;97760.72;5001292;28;20061;-64
2021/11/27 00:57:34;;;;;;;18.00;8.32;;;;;;;0.57;88.88;97768.50;5007846;28;20052;-64
2021/11/27 01:00:23;;;;;;;16.98;7.63;;;;;;;0.56;88.32;97766.00;5008168;28;20061;-61
2021/11/27 01:03:11;;;;;;;17.05;8.65;;;;;;;0.54;88.33;97755.59;5010257;28;20072;-63
2021/11/27 01:06:00;;;;;;;20.67;9.48;;;;;;;0.56;88.68;97760.72;5006939;28;20273;-61
2021/11/27 01:08:45;;;;;;;21.80;8.80;;;;;;;0.51;87.95;97753.25;5002943;28;20065;-63
2021/11/27 01:11:32;;;;;;;24.10;8.80;;;;;;;0.48;88.20;97747.44;5008455;28;20140;-63
2021/11/27 01:14:21;;;;;;;18.40;8.50;;;;;;;0.50;88.82;97754.22;5005673;28;20577;-62
2021/11/27 01:17:08;;;;;;;28.15;10.32;;;;;;;0.49;88.31;97754.38;5008908;28;20069;-63
2021/11/27 01:19:54;;;;;;;19.88;8.27;;;;;;;0.50;88.29;97753.41;5009363;28;20133;-61
2021/11/27 01:22:40;;;;;;;17.83;7.78;;;;;;;0.56;89.00;97750.19;5008933;28;20531;-64
2021/11/27 01:25:27;;;;;;;19.25;7.18;;;;;;;0.61;88.72;97744.50;5008698;28;20061;-62
2021/11/27 01:28:15;;;;;;;18.88;9.07;;;;;;;0.66;88.35;97748.34;5002110;28;20143;-61
2021/11/27 01:31:01;;;;;;;18.90;8.48;;;;;;;0.68;87.70;97745.56;5008952;28;20613;-63
2021/11/27 01:33:46;;;;;;;18.98;7.45;;;;;;;0.68;87.63;97742.94;5008830;28;20689;-63
2021/11/27 01:36:31;;;;;;;23.02;9.93;;;;;;;0.67;87.29;97731.53;5009299;28;20514;-62
2021/11/27 01:39:17;;;;;;;20.27;9.38;;;;;;;0.71;87.41;97727.66;5008147;28;20073;-64
2021/11/27 01:42:04;;;;;;;14.60;7.72;;;;;;;0.72;87.24;97726.69;5009198;28;20060;-61
2021/11/27 01:44:49;;;;;;;22.73;8.35;;;;;;;0.65;87.13;97717.66;5012282;28;20421;-64
2021/11/27 01:47:34;;;;;;;17.88;7.55;;;;;;;0.62;87.38;97725.88;5011893;28;20064;-63
2021/11/27 01:50:19;;;;;;;24.60;9.35;;;;;;;0.58;87.63;97730.56;5008254;28;20467;-62
2021/11/27 01:53:05;;;;;;;18.27;7.85;;;;;;;0.57;87.42;97733.38;5011699;28;20156;-62
2021/11/27 01:55:54;;;;;;;22.48;10.07;;;;;;;0.57;87.69;97730.72;5010231;28;20053;-63
2021/11/27 01:58:41;;;;;;;17.60;8.05;;;;;;;0.55;87.27;97733.50;5012308;28;20357;-65
2021/11/27 02:01:30;;;;;;;15.35;7.15;;;;;;;0.57;87.51;97725.44;5007383;28;20056;-64
2021/11/27 02:04:15;;;;;;;17.30;7.80;;;;;;;0.61;87.86;97718.94;5008289;28;20123;-63
2021/11/27 02:07:00;;;;;;;19.90;8.03;;;;;;;0.65;87.62;97716.81;5006632;28;20515;-61
2021/11/27 02:09:48;;;;;;;16.67;7.07;;;;;;;0.68;87.87;97716.53;5004109;28;20080;-62
2021/11/27 02:12:34;;;;;;;20.67;9.55;;;;;;;0.71;87.22;97709.19;5011625;28;20112;-64
2021/11/27 02:15:21;;;;;;;20.08;9.25;;;;;;;0.74;86.51;97714.16;5013123;28;20057;-61
2021/11/27 02:18:07;;;;;;;18.92;8.70;;;;;;;0.73;86.98;97715.13;5012015;28;20184;-61
2021/11/27 02:20:58;;;;;;;23.65;9.45;;;;;;;0.71;87.65;97705.69;5009214;28;20057;-62
2021/11/27 02:23:44;;;;;;;20.05;8.60;;;;;;;0.68;87.19;97700.69;5011708;28;20077;-62
2021/11/27 02:26:34;;;;;;;24.73;9.10;;;;;;;0.71;87.52;97700.41;5007374;28;20108;-60
2021/11/27 02:29:22;;;;;;;18.88;8.55;;;;;;;0.75;87.81;97699.97;5010958;28;20060;-63
2021/11/27 02:32:08;;;;;;;15.63;7.78;;;;;;;0.81;87.53;97699.38;5011203;28;20127;-60
2021/11/27 02:34:53;;;;;;;16.30;7.07;;;;;;;0.84;87.80;97698.28;5011058;28;20069;-59
2021/11/27 02:37:40;;;;;;;15.82;8.20;;;;;;;0.84;86.50;97707.03;5010666;28;20931;-62
2021/11/27 02:40:25;;;;;;;19.90;8.23;;;;;;;0.86;86.44;97699.81;5011828;28;20177;-60
2021/11/27 02:43:10;;;;;;;16.58;7.65;;;;;;;0.86;86.10;97694.53;5012082;28;20048;-64
2021/11/27 02:45:55;;;;;;;16.10;7.80;;;;;;;0.92;86.51;97694.91;5009605;28;20240;-63
2021/11/27 02:48:41;;;;;;;21.80;9.18;;;;;;;0.93;86.49;97688.63;5010911;28;20383;-60
2021/11/27 02:51:27;;;;;;;17.48;8.10;;;;;;;0.95;85.83;97686.69;5010204;28;20052;-62
2021/11/27 02:54:14;;;;;;;18.95;8.23;;;;;;;0.87;85.03;97682.97;5010398;28;20188;-61
2021/11/27 02:56:59;;;;;;;23.85;7.95;;;;;;;0.94;85.46;97680.56;5005304;28;20184;-61
2021/11/27 02:59:44;;;;;;;17.13;8.40;;;;;;;0.95;85.24;97681.41;5011487;28;20057;-61
2021/11/27 03:02:30;;;;;;;16.92;7.15;;;;;;;0.94;85.04;97674.44;5009478;28;20810;-63
2021/11/27 03:05:16;;;;;;;15.00;7.43;;;;;;;0.93;85.31;97678.91;5011574;28;20526;-61
2021/11/27 03:08:02;;;;;;;17.35;7.63;;;;;;;0.96;85.17;97677.81;5011496;28;20424;-62
2021/11/27 03:10:48;;;;;;;19.53;7.73;;;;;;;0.99;84.86;97670.41;5035320;22;20092;-60
2021/11/27 03:13:37;;;;;;;20.00;8.13;;;;;;;1.03;84.53;97673.59;5030475;28;20103;-62
2021/11/27 03:16:26;;;;;;;19.35;8.07;;;;;;;1.06;84.26;97662.72;5025560;28;20047;-62
2021/11/27 03:19:11;;;;;;;19.65;8.70;;;;;;;1.03;84.06;97671.78;5011798;28;20411;-63
2021/11/27 03:21:56;;;;;;;18.75;8.00;;;;;;;1.09;84.45;97673.00;5018708;28;20107;-61
2021/11/27 03:24:43;;;;;;;19.77;8.30;;;;;;;1.10;84.01;97674.66;5029118;28;20065;-62
2021/11/27 03:27:29;;;;;;;23.27;8.25;;;;;;;1.14;83.90;97681.31;5018873;28;20124;-60
2021/11/27 03:30:19;;;;;;;16.92;8.13;;;;;;;1.17;83.57;97667.81;5023722;28;20144;-60
2021/11/27 03:33:04;;;;;;;15.98;7.40;;;;;;;1.18;83.45;97666.81;5029423;28;20427;-61
2021/11/27 03:35:51;;;;;;;23.97;8.33;;;;;;;1.19;83.76;97665.88;5020765;28;20052;-59
2021/11/27 03:38:36;;;;;;;18.73;7.97;;;;;;;1.19;83.94;97663.22;5027161;28;20057;-62
2021/11/27 03:41:21;;;;;;;16.58;7.40;;;;;;;1.21;83.56;97658.63;5028542;28;20052;-59
2021/11/27 03:44:08;;;;;;;18.02;7.03;;;;;;;1.24;84.21;97668.06;5028851;28;20052;-62
2021/11/27 03:46:53;;;;;;;16.27;8.43;;;;;;;1.22;83.59;97667.38;5030031;28;20061;-61
2021/11/27 03:49:38;;;;;;;20.07;8.70;;;;;;;1.21;84.09;97671.84;5029093;28;20047;-63
2021/11/27 03:52:24;;;;;;;18.80;7.93;;;;;;;1.20;84.32;97675.44;5029532;28;20060;-61
2021/11/27 03:55:12;;;;;;;22.35;10.55;;;;;;;1.19;83.97;97667.69;5015984;28;20645;-62
2021/11/27 03:57:57;;;;;;;16.27;6.97;;;;;;;1.21;84.52;97671.84;5020406;28;20108;-61
2021/11/27 04:00:45;;;;;;;24.27;8.80;;;;;;;1.17;83.82;97686.28;5018169;28;20525;-62
2021/11/27 04:03:30;;;;;;;18.58;7.60;;;;;;;1.19;84.61;97678.25;5024296;28;20560;-60
2021/11/27 04:06:16;;;;;;;18.67;7.93;;;;;;;1.18;83.88;97682.66;5020242;28;20435;-63
2021/11/27 04:09:02;;;;;;;21.05;9.13;;;;;;;1.17;84.25;97679.19;5020065;28;20059;-59
2021/11/27 04:11:47;;;;;;;14.85;7.75;;;;;;;1.17;83.45;97678.38;5030087;28;20525;-62
2021/11/27 04:14:33;;;;;;;15.02;7.70;;;;;;;1.11;84.09;97676.34;5029433;28;20196;-60
2021/11/27 04:17:19;;;;;;;21.20;10.35;;;;;;;1.15;83.32;97672.41;5018114;28;20427;-62
2021/11/27 04:20:04;;;;;;;16.55;7.63;;;;;;;1.16;83.62;97685.47;5019842;28;20052;-60
2021/11/27 04:22:49;;;;;;;18.90;8.23;;;;;;;1.26;83.37;97679.31;5024591;28;20069;-59
2021/11/27 04:25:34;;;;;;;23.85;9.20;;;;;;;1.19;83.18;97678.25;5021543;28;20095;-61
2021/11/27 04:28:19;;;;;;;19.92;7.88;;;;;;;1.18;83.81;97682.66;5020717;28;20163;-60
2021/11/27 04:31:05;;;;;;;20.77;9.05;;;;;;;1.19;83.51;97675.59;5022344;28;20168;-62
2021/11/27 04:33:53;;;;;;;17.38;7.70;;;;;;;1.19;84.07;97678.25;5029221;28;20119;-60
2021/11/27 04:36:38;;;;;;;17.13;7.82;;;;;;;1.17;83.46;97678.38;5023402;28;20092;-59
2021/11/27 04:39:23;;;;;;;19.90;8.40;;;;;;;1.14;83.09;97683.97;5026631;28;20056;-61
2021/11/27 04:42:09;;;;;;;14.20;7.07;;;;;;;1.12;83.45;97685.91;5023732;28;20531;-62
2021/11/27 04:44:54;;;;;;;15.18;7.72;;;;;;;1.15;82.84;97677.69;5026458;28;20056;-58
2021/11/27 04:47:39;;;;;;;18.98;7.28;;;;;;;1.16;83.01;97695.19;5026209;28;20052;-61
2021/11/27 04:50:28;;;;;;;16.38;7.85;;;;;;;1.13;82.76;97693.69;5018361;28;20159;-63
2021/11/27 04:53:13;;;;;;;14.63;6.45;;;;;;;1.14;83.00;97698.00;5025731;28;20135;-62
2021/11/27 04:55:59;;;;;;;20.75;7.47;;;;;;;1.14;83.32;97690.06;5006720;28;20215;-63
2021/11/27 04:58:44;;;;;;;14.93;7.78;;;;;;;1.15;83.22;97693.53;5028311;28;20060;-62
2021/11/27 05:01:30;;;;;;;14.82;7.20;;;;;;;1.14;83.04;97686.59;5026056;28;20051;-59
2021/11/27 05:04:15;;;;;;;17.20;8.13;;;;;;;1.11;83.12;97692.19;5025463;28;20065;-61
2021/11/27 05:07:02;;;;;;;12.73;6.63;;;;;;;1.20;82.82;97693.13;5008292;28;20064;-62
2021/11/27 05:09:47;;;;;;;14.80;6.68;;;;;;;1.19;82.30;97694.94;5010020;28;20530;-61
2021/11/27 05:12:32;;;;;;;13.23;6.70;;;;;;;1.22;82.83;97699.91;5027269;28;20100;-63
2021/11/27 05:15:17;;;;;;;18.20;7.90;;;;;;;1.22;82.56;97705.19;5019058;28;20518;-67
2021/11/27 05:18:02;;;;;;;18.10;7.68;;;;;;;1.24;82.47;97691.84;5018181;28;20057;-63
2021/11/27 05:20:48;;;;;;;20.15;7.95;;;;;;;1.21;82.45;97711.47;5027084;28;20149;-61
2021/11/27 05:23:34;;;;;;;17.13;7.50;;;;;;;1.24;82.90;97718.25;5022082;28;20522;-63
2021/11/27 05:26:19;;;;;;;;;;;;;;;1.23;82.48;97712.13;5025452;28;20103;-61
2021/11/27 05:29:04;;;;;;;14.25;6.78;;;;;;;1.22;82.26;97707.84;5025767;28;19928;-62
2021/11/27 05:31:49;;;;;;;20.90;7.95;;;;;;;1.22;83.26;97699.91;5031045;28;20064;-67
2021/11/27 05:34:34;;;;;;;13.75;6.20;;;;;;;1.24;82.67;97705.88;5031651;28;20880;-62
2021/11/27 05:37:21;;;;;;;14.50;6.93;;;;;;;1.21;82.83;97708.81;5021537;28;20407;-62
2021/11/27 05:40:08;;;;;;;;;;;;;;;1.15;82.89;97709.38;5028477;28;20138;-61
2021/11/27 05:42:53;;;;;;;;;;;;;;;1.15;83.27;97715.50;5021343;28;19932;-59
2021/11/27 05:45:38;;;;;;;14.35;6.72;;;;;;;1.21;82.93;97718.56;5007828;28;19928;-61
2021/11/27 05:48:23;;;;;;;17.63;7.25;;;;;;;1.15;83.71;97715.50;5015278;28;20592;-62
2021/11/27 05:51:09;;;;;;;17.80;7.32;;;;;;;1.05;84.49;97721.81;5016348;28;20084;-62
2021/11/27 05:53:54;;;;;;;16.13;7.28;;;;;;;0.96;85.61;97733.28;5018957;28;20275;-62
2021/11/27 05:56:41;;;;;;;18.83;8.10;;;;;;;0.92;86.22;97737.16;5026361;28;20068;-60
2021/11/27 05:59:26;;;;;;;20.13;9.00;;;;;;;0.95;86.61;97735.09;5023023;28;20196;-61
2021/11/27 06:02:11;;;;;;;16.95;8.20;;;;;;;0.97;86.61;97737.56;5024701;28;20411;-60
2021/11/27 06:04:56;;;;;;;22.38;9.10;;;;;;;0.77;87.51;97731.50;4993082;28;20709;-60
2021/11/27 06:07:41;;;;;;;14.98;7.82;;;;;;;0.71;88.31;97738.22;5017760;28;20199;-61
2021/11/27 06:10:26;;;;;;;14.88;7.25;;;;;;;0.64;89.29;97737.09;5022970;28;20048;-61
2021/11/27 06:13:12;;;;;;;16.00;7.53;;;;;;;0.61;89.36;97736.56;5021944;28;20057;-62
2021/11/27 06:15:58;;;;;;;19.35;8.35;;;;;;;0.54;89.87;97734.50;5029489;28;20051;-61
2021/11/27 06:18:43;;;;;;;15.32;7.30;;;;;;;0.54;89.78;97733.66;5030176;28;20057;-61
2021/11/27 06:21:28;;;;;;;14.98;7.82;;;;;;;0.51;90.51;97742.69;5021172;28;20054;-62
2021/11/27 06:24:13;;;;;;;20.00;9.67;;;;;;;0.51;90.50;97747.16;5032503;28;20073;-60
2021/11/27 06:26:58;;;;;;;16.98;7.13;;;;;;;0.51;90.34;97739.22;5015266;28;20072;-62
2021/11/27 06:29:45;;;;;;;16.60;6.57;;;;;;;0.48;90.56;97747.44;5022862;28;20048;-61
2021/11/27 06:32:31;;;;;;;17.23;8.05;;;;;;;0.39;90.96;97750.91;5031804;28;20415;-61
2021/11/27 06:35:16;;;;;;;14.95;6.57;;;;;;;0.41;91.34;97754.25;5031686;28;20431;-63
2021/11/27 06:38:01;;;;;;;18.73;8.00;;;;;;;0.43;91.10;97761.03;5029022;28;20084;-60
2021/11/27 06:40:46;;;;;;;17.13;8.32;;;;;;;0.44;91.33;97753.94;5026689;28;20115;-61
2021/11/27 06:43:31;;;;;;;18.20;8.45;;;;;;;0.41;91.25;97757.72;5020577;28;20213;-61
2021/11/27 06:46:18;;;;;;;20.17;9.00;;;;;;;0.36;91.77;97765.22;5026460;28;20139;-63
2021/11/27 06:49:03;;;;;;;20.10;8.30;;;;;;;0.35;91.26;97767.97;5013724;28;20057;-62
2021/11/27 06:51:48;;;;;;;20.38;9.30;;;;;;;0.27;91.69;97761.63;4986921;28;20116;-62
2021/11/27 06:54:33;;;;;;;17.55;7.32;;;;;;;0.33;92.16;97762.00;4999071;28;20128;-62
2021/11/27 06:57:18;;;;;;;19.17;7.55;;;;;;;0.31;92.18;97766.59;5000650;28;20084;-59
2021/11/27 07:00:04;;;;;;;20.58;7.47;;;;;;;0.38;92.20;97765.91;5002408;28;20056;-62
2021/11/27 07:02:51;;;;;;;16.33;6.95;;;;;;;0.43;91.66;97771.59;5010157;28;20562;-62
2021/11/27 07:05:36;;;;;;;18.38;7.32;;;;;;;0.50;91.85;97769.25;5011742;28;20053;-62
2021/11/27 07:08:21;;;;;;;14.98;6.60;;;;;;;0.50;91.55;97774.50;5003668;28;20048;-62
2021/11/27 07:11:06;;;;;;;18.63;7.13;;;;;;;0.52;91.15;97783.13;5013155;28;20076;-62
2021/11/27 07:13:51;;;;;;;21.17;8.70;;;;;;;0.44;90.87;97780.34;5001532;28;20065;-63
2021/11/27 07:16:36;;;;;;;15.63;7.18;;;;;;;0.49;91.06;97780.75;5007738;28;20053;-62
2021/11/27 07:19:23;;;;;;;17.00;7.43;;;;;;;0.34;91.49;97784.78;5010404;28;20057;-60
2021/11/27 07:22:08;;;;;;;;;;;;;;;0.38;91.42;97788.84;5008031;28;20419;-61
2021/11/27 07:24:54;;;;;;;21.27;9.10;;;;;;;0.40;91.31;97797.44;5008105;28;20286;-63
2021/11/27 07:27:39;;;;;;;17.67;7.22;;;;;;;0.40;91.22;97797.44;5008244;28;20172;-60
2021/11/27 07:30:25;;;;;;;19.27;7.65;;;;;;;0.39;91.35;97806.31;5007413;28;20069;-60
2021/11/27 07:33:10;;;;;;;18.95;9.25;;;;;;;0.31;91.42;97808.81;5009445;28;20061;-61
2021/11/27 07:35:56;;;;;;;15.32;7.78;;;;;;;0.33;91.83;97809.50;5003372;28;20419;-60
2021/11/27 07:38:41;;;;;;;15.82;8.20;;;;;;;0.36;91.53;97806.63;5003299;28;20053;-62
2021/11/27 07:41:26;;;;;;;18.00;8.13;;;;;;;0.32;91.07;97807.84;5007824;28;20057;-61
2021/11/27 07:44:11;;;;;;;18.30;8.07;;;;;;;0.28;91.41;97804.66;5003880;28;20147;-61
2021/11/27 07:46:57;;;;;;;18.48;8.07;;;;;;;0.32;91.00;97800.75;5011723;28;20069;-59
2021/11/27 07:49:41;;;;;;;18.20;9.10;;;;;;;0.37;91.42;97803.00;5010046;28;20423;-61
2021/11/27 07:52:28;;;;;;;14.88;6.85;;;;;;;0.45;91.55;97801.31;5015010;28;20158;-62
2021/11/27 07:55:12;;;;;;;13.52;6.28;;;;;;;0.52;91.26;97802.44;5018247;28;20388;-60
2021/11/27 07:57:57;;;;;;;17.40;7.28;;;;;;;0.54;90.83;97794.38;5019592;28;20123;-63
2021/11/27 08:00:42;;;;;;;17.15;7.35;;;;;;;0.57;90.89;97792.25;5004058;28;20061;-61
2021/11/27 08:03:28;;;;;;;23.77;8.75;;;;;;;0.57;90.05;97800.19;5002341;28;20054;-61
2021/11/27 08:06:13;;;;;;;25.02;12.23;;;;;;;0.61;90.46;97795.47;5007772;28;20103;-60
2021/11/27 08:08:59;;;;;;;22.73;8.80;;;;;;;0.60;90.02;97793.81;5004955;28;20106;-61
2021/11/27 08:11:44;;;;;;;14.80;7.60;;;;;;;0.59;90.17;97797.41;5001747;28;20065;-61
2021/11/27 08:14:32;;;;;;;17.20;8.73;;;;;;;0.66;90.28;97803.78;5009309;28;20419;-60
2021/11/27 08:17:17;;;;;;;16.17;7.80;;;;;;;0.74;89.80;97801.28;5022078;28;20059;-62
2021/11/27 08:20:03;;;;;;;20.20;7.75;;;;;;;0.71;89.76;97795.44;5008739;28;20060;-62
2021/11/27 08:22:49;;;;;;;21.80;8.13;;;;;;;0.81;89.70;97805.00;5007925;28;20416;-62
2021/11/27 08:25:36;;;;;;;19.70;8.45;;;;;;;0.64;89.62;97797.81;5002654;28;20242;-63
2021/11/27 08:28:20;;;;;;;20.27;8.88;;;;;;;0.81;89.22;97796.25;5013896;28;20060;-61
2021/11/27 08:31:05;;;;;;;19.58;9.02;;;;;;;0.95;89.56;97800.25;4998019;28;20065;-62
2021/11/27 08:33:50;;;;;;;19.08;8.30;;;;;;;0.96;88.54;97796.66;5013270;28;20128;-60
2021/11/27 08:36:36;;;;;;;18.55;8.73;;;;;;;0.97;88.21;97806.25;5013175;28;20075;-59
2021/11/27 08:39:21;;;;;;;17.08;7.97;;;;;;;1.06;87.69;97806.19;5008118;28;20207;-59
2021/11/27 08:42:07;;;;;;;17.83;8.57;;;;;;;1.21;87.08;97809.22;5008230;28;20431;-63
2021/11/27 08:44:53;;;;;;;23.58;9.32;;;;;;;1.31;86.49;97810.03;5003999;28;20407;-61
2021/11/27 08:47:39;;;;;;;22.35;9.27;;;;;;;1.39;86.42;97815.41;5007823;28;20108;-62
2021/11/27 08:50:24;;;;;;;23.23;11.17;;;;;;;1.46;86.16;97805.91;5021832;28;20059;-62
2021/11/27 08:53:09;;;;;;;25.73;8.77;;;;;;;1.58;86.08;97808.38;5007296;28;20057;-61
2021/11/27 08:55:54;;;;;;;24.25;10.38;;;;;;;1.45;85.77;97804.25;5018548;28;20107;-60
2021/11/27 08:58:42;;;;;;;30.27;13.38;;;;;;;1.43;85.89;97790.34;5008026;28;20056;-63
2021/11/27 09:01:28;;;;;;;25.88;10.98;;;;;;;1.52;86.42;97793.06;5006914;28;20055;-60
2021/11/27 09:04:13;;;;;;;22.92;9.63;;;;;;;1.48;85.76;97800.47;5016999;28;20061;-62
2021/11/27 09:06:58;;;;;;;22.17;8.90;;;;;;;1.53;85.53;97800.84;5017493;28;20131;-62
2021/11/27 09:09:45;;;;;;;25.45;9.20;;;;;;;1.61;84.87;97802.78;5018711;22;20045;-61
2021/11/27 09:12:30;;;;;;;20.35;9.07;;;;;;;1.70;85.00;97805.38;5006086;28;20069;-63
2021/11/27 09:15:17;;;;;;;18.90;9.95;;;;;;;1.73;85.25;97804.25;5006474;28;20061;-62
2021/11/27 09:18:04;;;;;;;20.60;9.25;;;;;;;1.75;84.11;97807.56;4997964;28;20052;-63
2021/11/27 09:20:49;;;;;;;17.88;9.13;;;;;;;1.77;83.72;97808.25;5008609;28;20064;-65
2021/11/27 09:23:34;;;;;;;33.60;17.65;;;;;;;1.75;83.85;97807.56;5007026;28;20065;-64
2021/11/27 09:26:19;;;;;;;28.42;14.35;;;;;;;1.79;84.44;97814.25;4990545;28;20438;-63
2021/11/27 09:29:07;;;;;;;34.17;15.07;;;;;;;1.91;83.93;97818.34;5009655;28;20550;-62
2021/11/27 09:31:53;;;;;;;32.72;15.93;;;;;;;1.93;84.07;97826.97;5008257;28;20895;-63
2021/11/27 09:34:39;;;;;;;22.38;11.75;;;;;;;1.89;83.85;97820.28;5007662;28;20540;-64
2021/11/27 09:37:24;;;;;;;17.55;8.82;;;;;;;1.98;83.46;97813.28;5002920;28;20104;-62
2021/11/27 09:40:11;;;;;;;15.82;8.50;;;;;;;2.11;83.68;97820.84;5008848;28;20053;-62
2021/11/27 09:42:56;;;;;;;17.77;8.75;;;;;;;2.21;83.05;97813.69;4999877;28;20057;-62
2021/11/27 09:45:41;;;;;;;18.48;8.15;;;;;;;2.33;83.14;97823.06;5005118;28;20276;-62
2021/11/27 09:48:28;;;;;;;16.83;8.02;;;;;;;2.23;81.77;97824.94;4993005;28;20522;-62
2021/11/27 09:51:14;;;;;;;18.48;7.97;;;;;;;2.31;82.54;97822.38;5000738;28;20057;-63
2021/11/27 09:54:00;;;;;;;19.90;8.33;;;;;;;2.22;82.22;97826.75;4994294;28;20079;-63
2021/11/27 09:56:46;;;;;;;16.85;8.52;;;;;;;2.26;83.21;97827.31;5003092;28;20168;-64
2021/11/27 09:59:31;;;;;;;14.65;7.47;;;;;;;2.39;81.17;97824.28;5012924;28;20052;-62
2021/11/27 10:02:21;;;;;;;23.52;10.02;;;;;;;2.40;82.30;97828.59;5007018;28;20749;-62
2021/11/27 10:05:10;;;;;;;17.45;8.40;;;;;;;2.39;81.57;97835.72;5008753;28;20057;-64
2021/11/27 10:07:55;;;;;;;18.63;9.05;;;;;;;2.48;80.72;97832.13;5007625;28;20133;-62
2021/11/27 10:10:40;;;;;;;19.40;8.48;;;;;;;2.57;81.56;97833.88;5004839;28;20056;-63
2021/11/27 10:13:26;;;;;;;19.50;9.23;;;;;;;2.63;81.54;97830.63;5001595;28;20077;-64
2021/11/27 10:16:11;;;;;;;20.45;9.68;;;;;;;2.68;80.33;97838.09;5009956;28;20095;-63
2021/11/27 10:19:04;;;;;;;22.50;9.60;;;;;;;2.71;79.85;97834.31;5012390;28;20072;-63
2021/11/27 10:21:55;;;;;;;22.05;9.68;;;;;;;2.49;80.33;97836.47;5012259;28;20139;-64
2021/11/27 10:24:41;;;;;;;21.90;9.63;;;;;;;2.57;80.03;97831.22;5005776;28;20187;-62
2021/11/27 10:27:28;;;;;;;19.80;9.75;;;;;;;2.56;80.01;97832.22;5005110;28;20883;-64
2021/11/27 10:30:13;;;;;;;21.17;9.45;;;;;;;2.67;80.23;97830.31;5008311;28;20069;-63
2021/11/27 10:32:58;;;;;;;21.20;9.40;;;;;;;2.67;80.04;97825.84;5013547;28;20144;-62
2021/11/27 10:35:52;;;;;;;24.15;9.75;;;;;;;2.81;79.80;97821.81;5013400;28;20184;-62
2021/11/27 10:38:44;;;;;;;21.08;9.13;;;;;;;2.72;79.14;97826.19;5013238;28;20343;-62
2021/11/27 10:41:34;;;;;;;19.80;9.52;;;;;;;2.73;80.01;97835.00;5011645;28;20061;-63
2021/11/27 10:44:25;;;;;;;21.30;9.90;;;;;;;2.73;79.56;97821.75;5011580;28;20060;-63
2021/11/27 10:47:13;;;;;;;133.88;49.90;;;;;;;2.84;80.00;97826.78;5011000;28;20069;-62
2021/11/27 10:50:04;;;;;;;21.33;10.23;;;;;;;2.81;79.21;97830.59;5009406;28;20309;-65
2021/11/27 10:52:51;;;;;;;21.15;9.80;;;;;;;2.87;78.33;97831.81;5009092;28;20288;-62
2021/11/27 10:55:40;;;;;;;20.60;9.60;;;;;;;2.95;78.62;97829.19;4999472;28;20127;-61
2021/11/27 10:58:25;;;;;;;55.17;23.27;;;;;;;3.09;78.93;97825.16;5011741;28;20086;-63
2021/11/27 11:01:10;;;;;;;24.55;10.32;;;;;;;3.15;78.93;97829.84;5012796;28;20064;-61
2021/11/27 11:03:55;;;;;;;22.58;9.18;;;;;;;2.99;78.99;97830.56;5013387;28;20057;-62
2021/11/27 11:06:39;;;;;;;19.55;10.02;;;;;;;2.95;79.09;97823.88;4996265;28;20423;-62
2021/11/27 11:09:24;;;;;;;24.88;9.20;;;;;;;3.29;79.09;97829.25;4993283;28;20057;-62
2021/11/27 11:12:11;;;;;;;21.60;9.88;;;;;;;3.37;77.21;97813.41;4993850;28;20139;-63
2021/11/27 11:15:07;;;;;;;21.63;11.32;;;;;;;3.28;76.84;97814.34;4993702;28;20062;-62
2021/11/27 11:18:07;;;;;;;23.73;9.98;;;;;;;3.51;76.76;97811.97;5003178;28;20056;-62
2021/11/27 11:20:54;;;;;;;22.48;9.27;;;;;;;3.63;76.96;97813.34;5013017;28;20150;-61
2021/11/27 11:23:40;;;;;;;21.83;8.90;;;;;;;3.59;76.60;97805.88;5013185;28;20514;-63
2021/11/27 11:26:28;;;;;;;18.75;9.77;;;;;;;3.53;77.17;97817.94;5013203;28;20135;-63
2021/11/27 11:29:14;;;;;;;24.85;10.77;;;;;;;3.36;77.70;97816.22;5012369;28;20076;-61
2021/11/27 11:31:59;;;;;;;23.45;9.85;;;;;;;3.28;78.11;97819.63;5012851;28;20060;-63
2021/11/27 11:34:46;;;;;;;23.52;10.63;;;;;;;3.17;77.26;97817.25;5012578;28;20060;-62
2021/11/27 11:37:31;;;;;;;20.10;10.32;;;;;;;3.08;78.61;97819.03;5012982;28;20061;-62
2021/11/27 11:40:16;;;;;;;21.58;10.25;;;;;;;3.20;78.52;97816.97;5012516;28;20131;-62
2021/11/27 11:43:01;;;;;;;19.80;10.00;;;;;;;3.32;77.50;97823.66;5012852;28;20111;-63
2021/11/27 11:45:48;;;;;;;23.90;11.07;;;;;;;3.32;78.02;97814.88;5012113;28;20060;-63
2021/11/27 11:48:33;;;;;;;21.90;10.82;;;;;;;3.13;77.75;97822.03;5002855;28;20069;-63
2021/11/27 11:51:34;;;;;;;20.50;10.75;;;;;;;3.05;77.72;97819.31;5005953;28;20057;-65
2021/11/27 11:54:22;;;;;;;22.80;10.75;;;;;;;3.21;77.78;97822.09;5012324;28;20562;-64
2021/11/27 11:57:09;;;;;;;23.95;10.75;;;;;;;3.22;77.81;97815.81;5012046;28;20176;-64
2021/11/27 11:59:55;;;;;;;27.15;11.82;;;;;;;3.46;77.59;97814.28;5012329;28;20550;-63
2021/11/27 12:02:45;;;;;;;20.08;10.50;;;;;;;3.19;77.39;97812.63;5012858;28;20414;-62
2021/11/27 12:05:32;;;;;;;28.73;12.70;;;;;;;3.33;77.58;97821.84;5012490;28;20053;-64
2021/11/27 12:08:18;;;;;;;21.27;10.98;;;;;;;3.01;77.95;97827.75;5011460;28;20057;-61
2021/11/27 12:11:03;;;;;;;23.95;10.52;;;;;;;3.07;78.74;97829.78;5012028;28;20064;-64
2021/11/27 12:13:48;;;;;;;23.15;10.68;;;;;;;3.13;78.45;97827.34;4999890;28;20062;-62
2021/11/27 12:16:33;;;;;;;25.65;11.70;;;;;;;3.17;77.93;97828.69;4992046;28;20065;-64
2021/11/27 12:19:35;;;;;;;26.92;11.70;;;;;;;3.15;79.11;97838.63;4995864;28;20084;-62
2021/11/27 12:22:41;;;;;;;22.95;11.18;;;;;;;3.14;79.71;97852.03;5011404;28;20149;-63
2021/11/27 12:25:28;;;;;;;27.25;12.20;;;;;;;3.06;79.39;97844.84;5011382;28;20100;-61
2021/11/27 12:28:15;;;;;;;26.10;11.68;;;;;;;3.02;79.57;97842.66;5011268;28;20192;-64
2021/11/27 12:31:05;;;;;;;22.80;10.98;;;;;;;3.01;79.48;97844.50;5012010;28;20184;-62
2021/11/27 12:33:54;;;;;;;27.02;10.77;;;;;;;3.04;79.45;97848.63;5011543;28;20060;-63
2021/11/27 12:36:50;;;;;;;24.63;11.10;;;;;;;2.97;79.51;97848.44;5011750;28;20065;-64
2021/11/27 12:39:37;;;;;;;23.42;11.02;;;;;;;2.97;79.48;97845.78;5011352;28;20064;-64
2021/11/27 12:42:32;;;;;;;26.10;11.27;;;;;;;2.96;80.31;97846.78;5011479;28;20139;-63
2021/11/27 12:45:38;;;;;;;29.33;13.10;;;;;;;2.96;80.13;97845.91;5011167;28;20057;-62
2021/11/27 12:48:38;;;;;;;24.48;10.48;;;;;;;2.98;81.22;97847.44;5010653;28;20165;-61
2021/11/27 12:51:24;;;;;;;24.73;11.82;;;;;;;2.88;81.48;97844.88;5005220;28;20060;-63
2021/11/27 12:54:29;;;;;;;;;;;;;;;2.75;82.45;97849.75;5012248;28;20097;-64
2021/11/27 12:57:16;;;;;;;24.00;11.52;;;;;;;2.77;82.63;97844.31;5011408;28;20302;-64
2021/11/27 13:00:06;;;;;;;30.88;12.20;;;;;;;2.81;82.93;97854.44;5011448;28;20069;-62
2021/11/27 13:02:52;;;;;;;24.73;11.80;;;;;;;2.79;83.28;97853.75;5011438;28;20057;-63
2021/11/27 13:05:38;;;;;;;28.73;12.45;;;;;;;2.76;84.04;97859.38;5011254;28;20060;-63